PVVLO weather

Campo di Volo L'Airone
Valle Lomellina (PV), Lombardy, Italy

Public forecast

Using degrees Celsius for public forecast. Weather courtesy of forecast.io.

Closest aviation weather report (METAR) to Campo di Volo L'Airone

Closest report is Cameri Air Base [MIL], 22.6 nm (41.8 km) N. Retrieved 2020/07/14 16:55 UTC (21 minutes ago):

LIMN 141655Z 26005KT 9999 FEW040 25/14 Q1013 RMK BKN SCT080 BKN180 VIS MIN 9999 BLU

Closest aviation forecast (TAF) to Campo di Volo L'Airone

Forecast is more than 12 hours old.

Closest forecast is Cameri Air Base [MIL], 22.6 nm (41.8 km) N. Retrieved 2010/11/18 12:24 UTC (10 years ago):

TAF TAF LIMN 181100Z 1812/1921 VRB03KT 1500 RA BR BKN030